createdAt,value
2022-12-12T00:04:06.478Z,3.73
2022-12-12T00:09:09.855Z,3.60
2022-12-12T00:14:12.180Z,3.56
2022-12-12T00:19:14.506Z,3.58
2022-12-12T00:24:16.687Z,3.53
2022-12-12T00:29:18.929Z,3.43
2022-12-12T00:34:20.954Z,3.60
2022-12-12T00:39:24.075Z,3.46
2022-12-12T00:44:26.307Z,3.61
2022-12-12T00:49:28.379Z,3.52
2022-12-12T00:54:30.603Z,3.57
2022-12-12T00:59:32.815Z,3.87
2022-12-12T01:04:35.234Z,3.96
2022-12-12T01:09:38.746Z,3.95
2022-12-12T01:14:41.497Z,3.94
2022-12-12T01:19:43.715Z,4.00
2022-12-12T01:24:46.056Z,3.98
2022-12-12T01:29:48.234Z,4.02
2022-12-12T01:34:50.353Z,3.96
2022-12-12T01:39:52.561Z,3.91
2022-12-12T01:44:54.876Z,3.91
2022-12-12T01:50:04.290Z,3.80
2022-12-12T01:55:11.437Z,3.88
2022-12-12T02:00:14.448Z,3.78
2022-12-12T02:05:25.621Z,4.01
2022-12-12T02:10:27.967Z,3.90
2022-12-12T02:15:40.162Z,3.67
2022-12-12T02:21:05.515Z,3.74
2022-12-12T02:26:41.539Z,3.77
2022-12-12T02:32:22.095Z,3.92
2022-12-12T02:37:32.019Z,3.88
2022-12-12T02:43:02.125Z,4.01
2022-12-12T02:48:09.679Z,4.06
2022-12-12T02:53:12.078Z,4.22
2022-12-12T02:58:14.666Z,4.19
2022-12-12T03:04:02.781Z,4.36
2022-12-12T03:09:28.341Z,4.27
2022-12-12T03:14:59.886Z,3.85
2022-12-12T03:20:18.048Z,3.96
2022-12-12T03:25:41.788Z,4.25
2022-12-12T03:30:47.705Z,4.19
2022-12-12T03:36:03.099Z,4.32
2022-12-12T03:41:09.560Z,4.24
2022-12-12T03:46:17.779Z,4.27
2022-12-12T03:51:28.410Z,4.27
2022-12-12T03:57:00.238Z,4.29
2022-12-12T04:02:52.082Z,4.35
2022-12-12T04:08:07.770Z,4.38
2022-12-12T04:13:32.023Z,4.48
2022-12-12T04:18:53.572Z,4.60
2022-12-12T04:24:29.323Z,4.48
2022-12-12T04:29:53.318Z,4.48
2022-12-12T04:35:04.384Z,4.22
2022-12-12T04:40:10.322Z,4.17
2022-12-12T04:45:19.529Z,4.00
2022-12-12T04:50:25.794Z,4.08
2022-12-12T04:55:33.243Z,4.25
2022-12-12T05:00:48.047Z,4.23
2022-12-12T05:06:11.266Z,4.18
2022-12-12T05:11:14.972Z,4.28
2022-12-12T05:16:19.208Z,4.47
2022-12-12T05:21:22.211Z,4.54
2022-12-12T05:26:27.615Z,4.37
2022-12-12T05:31:30.099Z,4.40
2022-12-12T05:36:32.189Z,4.36
2022-12-12T05:41:34.391Z,4.33
2022-12-12T05:46:36.502Z,4.41
2022-12-12T05:51:40.276Z,4.55
2022-12-12T05:56:42.913Z,4.31
2022-12-12T06:01:45.216Z,4.09
2022-12-12T06:06:47.608Z,4.40
2022-12-12T06:11:50.771Z,4.45
2022-12-12T06:16:53.164Z,4.48
2022-12-12T06:21:55.234Z,4.61
2022-12-12T06:26:57.542Z,4.38
2022-12-12T06:31:59.820Z,4.40
2022-12-12T06:37:02.103Z,4.57
2022-12-12T06:42:04.167Z,4.51
2022-12-12T06:47:06.620Z,4.70
2022-12-12T06:52:08.924Z,4.75
2022-12-12T06:57:34.020Z,4.69
2022-12-12T07:02:36.256Z,4.78
2022-12-12T07:07:38.568Z,4.68
2022-12-12T07:12:41.120Z,4.98
2022-12-12T07:17:43.292Z,4.56
2022-12-12T07:22:45.398Z,4.33
2022-12-12T07:27:47.549Z,4.05
2022-12-12T07:32:51.937Z,4.30
2022-12-12T07:37:54.834Z,4.59
2022-12-12T07:42:56.992Z,4.38
2022-12-12T07:47:59.143Z,4.38
2022-12-12T07:53:01.505Z,4.45
2022-12-12T07:58:03.630Z,4.95
2022-12-12T08:03:05.843Z,5.31
2022-12-12T08:08:08.119Z,5.34
2022-12-12T08:13:10.513Z,5.13
2022-12-12T08:18:12.795Z,5.08
2022-12-12T08:23:14.932Z,5.05
2022-12-12T08:28:16.949Z,5.14
2022-12-12T08:33:19.377Z,5.23
2022-12-12T08:38:22.567Z,5.38
2022-12-12T08:43:24.655Z,5.40
2022-12-12T08:48:26.866Z,5.66
2022-12-12T08:53:28.907Z,5.96
2022-12-12T08:58:35.404Z,6.02
2022-12-12T09:03:37.788Z,6.56
2022-12-12T09:08:40.885Z,7.57
2022-12-12T09:13:44.342Z,7.81
2022-12-12T09:18:48.967Z,7.59
2022-12-12T09:23:52.085Z,7.48
2022-12-12T09:28:54.461Z,7.90
2022-12-12T09:33:56.645Z,7.75
2022-12-12T09:38:58.760Z,7.75
2022-12-12T09:44:08.964Z,7.61
2022-12-12T09:49:41.556Z,7.51
2022-12-12T09:54:45.990Z,7.31
2022-12-12T10:00:03.503Z,6.79
2022-12-12T10:05:40.645Z,6.64
2022-12-12T10:10:49.783Z,6.43
2022-12-12T10:15:56.657Z,6.42
2022-12-12T10:21:03.210Z,6.29
2022-12-12T10:26:28.698Z,6.10
2022-12-12T10:31:57.356Z,6.11
2022-12-12T10:37:17.904Z,6.10
2022-12-12T10:42:35.576Z,6.27
2022-12-12T10:47:37.845Z,6.30
2022-12-12T10:52:40.020Z,6.26
2022-12-12T10:57:42.566Z,6.61
2022-12-12T11:02:45.585Z,6.61
2022-12-12T11:08:03.078Z,6.47
2022-12-12T11:13:11.102Z,6.66
2022-12-12T11:18:19.542Z,6.35
2022-12-12T11:23:26.902Z,6.47
2022-12-12T11:28:36.502Z,6.35
2022-12-12T11:33:45.778Z,6.20
2022-12-12T11:38:56.045Z,6.28
2022-12-12T11:44:01.633Z,6.08
2022-12-12T11:49:06.077Z,6.23
2022-12-12T11:54:31.667Z,6.39
2022-12-12T11:59:48.412Z,6.36
2022-12-12T12:04:55.150Z,6.53
2022-12-12T12:10:04.121Z,6.50
2022-12-12T12:15:33.669Z,6.35
2022-12-12T12:20:38.939Z,6.21
2022-12-12T12:26:05.112Z,6.10
2022-12-12T12:31:24.426Z,5.91
2022-12-12T12:36:35.883Z,5.88
2022-12-12T12:42:13.536Z,5.76
2022-12-12T12:47:41.950Z,5.85
2022-12-12T12:52:53.411Z,5.88
2022-12-12T12:57:55.864Z,5.83
2022-12-12T13:03:19.412Z,5.93
2022-12-12T13:08:43.805Z,5.70
2022-12-12T13:13:52.410Z,5.99
2022-12-12T13:19:05.450Z,5.63
2022-12-12T13:24:42.780Z,5.90
2022-12-12T13:30:01.280Z,5.73
2022-12-12T13:35:11.341Z,5.77
2022-12-12T13:40:51.422Z,5.70
2022-12-12T13:45:54.451Z,5.77
2022-12-12T13:51:28.004Z,5.83
2022-12-12T13:56:35.191Z,5.77
2022-12-12T14:01:41.207Z,5.69
2022-12-12T14:06:43.532Z,5.44
2022-12-12T14:11:46.208Z,5.37
2022-12-12T14:16:54.529Z,5.25
2022-12-12T14:21:57.707Z,5.17
2022-12-12T14:27:08.349Z,5.16
2022-12-12T14:32:14.139Z,5.13
2022-12-12T14:37:32.423Z,5.16
2022-12-12T14:43:20.522Z,5.29
2022-12-12T14:48:23.531Z,5.31
2022-12-12T14:53:32.248Z,5.23
2022-12-12T14:58:41.813Z,4.85
2022-12-12T15:03:50.159Z,4.64
2022-12-12T15:08:53.132Z,4.75
2022-12-12T15:13:58.357Z,4.60
2022-12-12T15:19:01.857Z,4.63
2022-12-12T15:24:04.782Z,4.49
2022-12-12T15:29:08.034Z,4.50
2022-12-12T15:34:43.116Z,4.50
2022-12-12T15:39:45.362Z,4.48
2022-12-12T15:44:52.083Z,4.57
2022-12-12T15:49:54.464Z,4.40
2022-12-12T15:54:59.034Z,4.46
2022-12-12T16:00:06.632Z,4.60
2022-12-12T16:05:18.604Z,5.42
2022-12-12T16:10:23.573Z,4.84
2022-12-12T16:15:38.690Z,4.85
2022-12-12T16:20:54.372Z,5.27
2022-12-12T16:25:58.819Z,4.75
2022-12-12T16:31:04.383Z,5.10
2022-12-12T16:36:09.314Z,5.02
2022-12-12T16:41:15.498Z,5.21
2022-12-12T16:46:23.990Z,4.99
2022-12-12T16:51:33.242Z,4.59
2022-12-12T16:56:35.535Z,4.43
2022-12-12T17:01:39.043Z,4.06
2022-12-12T17:06:41.345Z,4.03
2022-12-12T17:11:43.581Z,3.80
2022-12-12T17:16:46.009Z,3.74
2022-12-12T17:21:48.658Z,3.72
2022-12-12T17:26:50.805Z,3.53
2022-12-12T17:31:53.011Z,3.48
2022-12-12T17:37:00.051Z,3.55
2022-12-12T17:42:02.293Z,3.50
2022-12-12T17:47:04.405Z,3.77
2022-12-12T17:52:09.872Z,3.77
2022-12-12T17:57:11.997Z,3.89
2022-12-12T18:02:14.643Z,3.87
2022-12-12T18:07:16.992Z,3.82
2022-12-12T18:12:19.360Z,3.76
2022-12-12T18:17:22.155Z,3.55
2022-12-12T18:22:24.510Z,3.57
2022-12-12T18:27:26.813Z,3.64
2022-12-12T18:32:29.345Z,3.32
2022-12-12T18:37:31.386Z,3.55
2022-12-12T18:42:33.650Z,3.50
2022-12-12T18:47:35.883Z,3.50
2022-12-12T18:52:38.008Z,3.19
2022-12-12T18:57:40.306Z,3.11
2022-12-12T19:02:43.010Z,2.88
2022-12-12T19:07:47.119Z,2.82
2022-12-12T19:12:49.294Z,2.46
2022-12-12T19:17:51.725Z,2.38
2022-12-12T19:22:53.922Z,2.30
2022-12-12T19:27:56.092Z,2.07
2022-12-12T19:32:58.238Z,1.92
2022-12-12T19:38:00.351Z,2.02
2022-12-12T19:43:02.663Z,1.83
2022-12-12T19:48:05.520Z,1.96
2022-12-12T19:53:07.556Z,1.89
2022-12-12T19:58:09.892Z,1.88
2022-12-12T20:03:12.623Z,1.79
2022-12-12T20:08:50.377Z,1.76
2022-12-12T20:13:59.004Z,1.44
2022-12-12T20:19:01.283Z,1.65
2022-12-12T20:24:03.519Z,1.36
2022-12-12T20:29:09.463Z,1.00
2022-12-12T20:34:13.127Z,1.00
2022-12-12T20:39:17.566Z,0.80
2022-12-12T20:44:20.752Z,0.79
2022-12-12T20:49:24.443Z,0.78
2022-12-12T20:54:29.158Z,0.79
2022-12-12T20:59:31.618Z,0.59
2022-12-12T21:04:34.871Z,0.72
2022-12-12T21:09:37.444Z,0.63
2022-12-12T21:14:39.996Z,0.59
2022-12-12T21:19:42.354Z,0.66
2022-12-12T21:24:44.511Z,0.85
2022-12-12T21:29:46.799Z,0.76
2022-12-12T21:34:49.719Z,0.93
2022-12-12T21:39:53.636Z,0.90
2022-12-12T21:44:55.867Z,1.04
2022-12-12T21:49:58.221Z,0.86
2022-12-12T21:55:00.419Z,0.70
2022-12-12T22:00:02.744Z,0.63
2022-12-12T22:05:23.897Z,0.73
2022-12-12T22:10:26.131Z,0.59
2022-12-12T22:15:28.471Z,0.89
2022-12-12T22:20:30.913Z,0.76
2022-12-12T22:25:33.126Z,0.89
2022-12-12T22:30:35.534Z,1.14
2022-12-12T22:35:37.626Z,1.11
2022-12-12T22:40:39.932Z,1.32
2022-12-12T22:45:42.284Z,1.20
2022-12-12T22:50:44.947Z,1.37
2022-12-12T22:55:47.031Z,1.37
2022-12-12T23:00:49.331Z,1.30
2022-12-12T23:05:51.557Z,1.26
2022-12-12T23:10:53.969Z,1.01
2022-12-12T23:15:56.300Z,0.22
2022-12-12T23:20:58.452Z,0.31
2022-12-12T23:26:06.962Z,0.34
2022-12-12T23:31:20.284Z,0.28
2022-12-12T23:36:23.860Z,0.43
2022-12-12T23:41:27.108Z,0.41
2022-12-12T23:46:29.873Z,0.31
2022-12-12T23:51:35.010Z,0.38
2022-12-12T23:56:37.889Z,0.32
